sensor_id;sensor_type;location;lat;lon;timestamp;P1;durP1;ratioP1;P2;durP2;ratioP2
77123;SDS011;66079;47.646;19.130;2023-03-01T00:01:39;19.40;;;11.07;;
77123;SDS011;66079;47.646;19.130;2023-03-01T00:04:42;21.30;;;10.47;;
77123;SDS011;66079;47.646;19.130;2023-03-01T00:07:44;16.97;;;10.57;;
77123;SDS011;66079;47.646;19.130;2023-03-01T00:10:48;20.55;;;10.80;;
77123;SDS011;66079;47.646;19.130;2023-03-01T00:13:51;16.50;;;9.85;;
77123;SDS011;66079;47.646;19.130;2023-03-01T00:16:56;23.50;;;10.15;;
77123;SDS011;66079;47.646;19.130;2023-03-01T00:19:58;19.03;;;10.37;;
77123;SDS011;66079;47.646;19.130;2023-03-01T00:23:01;19.53;;;9.97;;
77123;SDS011;66079;47.646;19.130;2023-03-01T00:26:07;17.17;;;10.45;;
77123;SDS011;66079;47.646;19.130;2023-03-01T00:29:14;17.55;;;9.85;;
77123;SDS011;66079;47.646;19.130;2023-03-01T00:32:17;18.25;;;10.77;;
77123;SDS011;66079;47.646;19.130;2023-03-01T00:35:19;19.97;;;10.27;;
77123;SDS011;66079;47.646;19.130;2023-03-01T00:38:22;22.05;;;11.77;;
77123;SDS011;66079;47.646;19.130;2023-03-01T00:41:25;22.50;;;11.40;;
77123;SDS011;66079;47.646;19.130;2023-03-01T00:44:30;22.08;;;12.00;;
77123;SDS011;66079;47.646;19.130;2023-03-01T00:47:33;19.17;;;11.23;;
77123;SDS011;66079;47.646;19.130;2023-03-01T00:50:36;22.27;;;11.90;;
77123;SDS011;66079;47.646;19.130;2023-03-01T00:53:39;20.15;;;11.55;;
77123;SDS011;66079;47.646;19.130;2023-03-01T00:56:42;20.67;;;10.98;;
77123;SDS011;66079;47.646;19.130;2023-03-01T00:59:45;20.58;;;10.60;;
77123;SDS011;66079;47.646;19.130;2023-03-01T01:02:47;19.47;;;10.33;;
77123;SDS011;66079;47.646;19.130;2023-03-01T01:05:52;18.33;;;10.23;;
77123;SDS011;66079;47.646;19.130;2023-03-01T01:08:55;20.65;;;10.60;;
77123;SDS011;66079;47.646;19.130;2023-03-01T01:11:58;21.50;;;11.77;;
77123;SDS011;66079;47.646;19.130;2023-03-01T01:15:00;19.23;;;11.00;;
77123;SDS011;66079;47.646;19.130;2023-03-01T01:18:03;21.47;;;10.30;;
77123;SDS011;66079;47.646;19.130;2023-03-01T01:21:07;19.57;;;10.63;;
77123;SDS011;66079;47.646;19.130;2023-03-01T01:24:11;21.42;;;11.65;;
77123;SDS011;66079;47.646;19.130;2023-03-01T01:27:14;20.00;;;11.52;;
77123;SDS011;66079;47.646;19.130;2023-03-01T01:30:17;19.23;;;10.75;;
77123;SDS011;66079;47.646;19.130;2023-03-01T01:33:19;19.63;;;11.37;;
77123;SDS011;66079;47.646;19.130;2023-03-01T01:36:22;21.70;;;11.03;;
77123;SDS011;66079;47.646;19.130;2023-03-01T01:39:25;23.50;;;11.63;;
77123;SDS011;66079;47.646;19.130;2023-03-01T01:42:27;21.85;;;12.18;;
77123;SDS011;66079;47.646;19.130;2023-03-01T01:45:32;23.15;;;11.93;;
77123;SDS011;66079;47.646;19.130;2023-03-01T01:48:47;23.50;;;12.97;;
77123;SDS011;66079;47.646;19.130;2023-03-01T01:51:55;24.90;;;11.60;;
77123;SDS011;66079;47.646;19.130;2023-03-01T01:58:05;19.75;;;11.25;;
77123;SDS011;66079;47.646;19.130;2023-03-01T02:01:13;24.55;;;12.05;;
77123;SDS011;66079;47.646;19.130;2023-03-01T02:04:16;18.93;;;10.80;;
77123;SDS011;66079;47.646;19.130;2023-03-01T02:07:22;16.30;;;10.50;;
77123;SDS011;66079;47.646;19.130;2023-03-01T02:10:26;19.70;;;10.55;;
77123;SDS011;66079;47.646;19.130;2023-03-01T02:13:31;17.65;;;9.63;;
77123;SDS011;66079;47.646;19.130;2023-03-01T02:16:35;16.77;;;9.32;;
77123;SDS011;66079;47.646;19.130;2023-03-01T02:23:09;15.10;;;9.10;;
77123;SDS011;66079;47.646;19.130;2023-03-01T02:29:42;16.67;;;8.80;;
77123;SDS011;66079;47.646;19.130;2023-03-01T02:32:46;15.93;;;8.60;;
77123;SDS011;66079;47.646;19.130;2023-03-01T02:35:51;13.77;;;7.77;;
77123;SDS011;66079;47.646;19.130;2023-03-01T02:38:57;14.10;;;8.27;;
77123;SDS011;66079;47.646;19.130;2023-03-01T02:42:01;13.30;;;7.85;;
77123;SDS011;66079;47.646;19.130;2023-03-01T02:45:06;14.07;;;7.85;;
77123;SDS011;66079;47.646;19.130;2023-03-01T02:48:08;13.75;;;8.05;;
77123;SDS011;66079;47.646;19.130;2023-03-01T02:57:50;15.13;;;8.55;;
77123;SDS011;66079;47.646;19.130;2023-03-01T03:00:53;14.15;;;8.13;;
77123;SDS011;66079;47.646;19.130;2023-03-01T03:03:57;15.43;;;8.55;;
77123;SDS011;66079;47.646;19.130;2023-03-01T03:07:02;14.77;;;8.27;;
77123;SDS011;66079;47.646;19.130;2023-03-01T03:10:06;12.77;;;7.80;;
77123;SDS011;66079;47.646;19.130;2023-03-01T03:13:16;12.88;;;7.50;;
77123;SDS011;66079;47.646;19.130;2023-03-01T03:16:19;16.33;;;8.02;;
77123;SDS011;66079;47.646;19.130;2023-03-01T03:19:22;15.10;;;7.90;;
77123;SDS011;66079;47.646;19.130;2023-03-01T03:22:25;13.27;;;7.17;;
77123;SDS011;66079;47.646;19.130;2023-03-01T03:25:29;16.23;;;8.57;;
77123;SDS011;66079;47.646;19.130;2023-03-01T03:28:33;19.67;;;8.27;;
77123;SDS011;66079;47.646;19.130;2023-03-01T03:31:36;14.70;;;8.18;;
77123;SDS011;66079;47.646;19.130;2023-03-01T03:34:39;20.10;;;9.35;;
77123;SDS011;66079;47.646;19.130;2023-03-01T03:37:41;15.87;;;8.67;;
77123;SDS011;66079;47.646;19.130;2023-03-01T03:41:04;14.93;;;8.17;;
77123;SDS011;66079;47.646;19.130;2023-03-01T03:44:09;16.58;;;8.27;;
77123;SDS011;66079;47.646;19.130;2023-03-01T03:47:11;15.00;;;7.78;;
77123;SDS011;66079;47.646;19.130;2023-03-01T03:50:16;15.55;;;8.20;;
77123;SDS011;66079;47.646;19.130;2023-03-01T03:53:20;14.63;;;7.70;;
77123;SDS011;66079;47.646;19.130;2023-03-01T03:56:24;17.90;;;8.50;;
77123;SDS011;66079;47.646;19.130;2023-03-01T03:59:29;14.02;;;8.02;;
77123;SDS011;66079;47.646;19.130;2023-03-01T04:02:32;13.48;;;7.90;;
77123;SDS011;66079;47.646;19.130;2023-03-01T04:05:35;15.13;;;8.13;;
77123;SDS011;66079;47.646;19.130;2023-03-01T04:08:38;13.37;;;7.60;;
77123;SDS011;66079;47.646;19.130;2023-03-01T04:11:41;16.67;;;7.97;;
77123;SDS011;66079;47.646;19.130;2023-03-01T04:14:43;15.02;;;8.30;;
77123;SDS011;66079;47.646;19.130;2023-03-01T04:17:49;16.77;;;7.93;;
77123;SDS011;66079;47.646;19.130;2023-03-01T04:20:54;14.43;;;8.00;;
77123;SDS011;66079;47.646;19.130;2023-03-01T04:23:57;14.27;;;7.53;;
77123;SDS011;66079;47.646;19.130;2023-03-01T04:27:00;14.80;;;7.68;;
77123;SDS011;66079;47.646;19.130;2023-03-01T04:30:04;17.35;;;8.32;;
77123;SDS011;66079;47.646;19.130;2023-03-01T04:33:09;16.60;;;8.07;;
77123;SDS011;66079;47.646;19.130;2023-03-01T04:36:13;15.97;;;8.13;;
77123;SDS011;66079;47.646;19.130;2023-03-01T04:39:16;17.43;;;8.53;;
77123;SDS011;66079;47.646;19.130;2023-03-01T04:42:19;15.20;;;8.52;;
77123;SDS011;66079;47.646;19.130;2023-03-01T04:45:22;16.77;;;8.38;;
77123;SDS011;66079;47.646;19.130;2023-03-01T04:48:25;15.90;;;8.10;;
77123;SDS011;66079;47.646;19.130;2023-03-01T04:51:27;14.00;;;8.00;;
77123;SDS011;66079;47.646;19.130;2023-03-01T04:54:31;15.45;;;7.93;;
77123;SDS011;66079;47.646;19.130;2023-03-01T04:57:35;18.10;;;8.50;;
77123;SDS011;66079;47.646;19.130;2023-03-01T05:00:38;16.83;;;7.90;;
77123;SDS011;66079;47.646;19.130;2023-03-01T05:03:42;21.23;;;9.17;;
77123;SDS011;66079;47.646;19.130;2023-03-01T05:06:45;20.57;;;8.93;;
77123;SDS011;66079;47.646;19.130;2023-03-01T05:09:47;15.85;;;8.73;;
77123;SDS011;66079;47.646;19.130;2023-03-01T05:12:50;21.27;;;9.10;;
77123;SDS011;66079;47.646;19.130;2023-03-01T05:15:58;14.63;;;8.55;;
77123;SDS011;66079;47.646;19.130;2023-03-01T05:19:02;17.33;;;8.37;;
77123;SDS011;66079;47.646;19.130;2023-03-01T05:22:13;15.93;;;8.60;;
77123;SDS011;66079;47.646;19.130;2023-03-01T05:25:16;16.15;;;8.25;;
77123;SDS011;66079;47.646;19.130;2023-03-01T05:28:19;19.40;;;9.05;;
77123;SDS011;66079;47.646;19.130;2023-03-01T05:31:22;17.35;;;9.07;;
77123;SDS011;66079;47.646;19.130;2023-03-01T05:34:25;12.37;;;8.00;;
77123;SDS011;66079;47.646;19.130;2023-03-01T05:37:29;16.67;;;8.13;;
77123;SDS011;66079;47.646;19.130;2023-03-01T05:40:33;16.92;;;8.93;;
77123;SDS011;66079;47.646;19.130;2023-03-01T05:43:37;15.07;;;8.68;;
77123;SDS011;66079;47.646;19.130;2023-03-01T05:46:41;19.00;;;8.93;;
77123;SDS011;66079;47.646;19.130;2023-03-01T05:49:43;18.47;;;8.87;;
77123;SDS011;66079;47.646;19.130;2023-03-01T05:52:47;17.87;;;8.50;;
77123;SDS011;66079;47.646;19.130;2023-03-01T05:56:10;17.42;;;8.90;;
77123;SDS011;66079;47.646;19.130;2023-03-01T05:59:13;16.48;;;9.55;;
77123;SDS011;66079;47.646;19.130;2023-03-01T06:02:17;15.88;;;9.35;;
77123;SDS011;66079;47.646;19.130;2023-03-01T06:05:20;16.57;;;9.30;;
77123;SDS011;66079;47.646;19.130;2023-03-01T06:08:24;14.63;;;8.70;;
77123;SDS011;66079;47.646;19.130;2023-03-01T06:11:29;19.70;;;9.23;;
77123;SDS011;66079;47.646;19.130;2023-03-01T06:14:31;17.10;;;9.13;;
77123;SDS011;66079;47.646;19.130;2023-03-01T06:17:34;20.10;;;9.73;;
77123;SDS011;66079;47.646;19.130;2023-03-01T06:20:41;17.20;;;9.50;;
77123;SDS011;66079;47.646;19.130;2023-03-01T06:23:44;17.10;;;9.20;;
77123;SDS011;66079;47.646;19.130;2023-03-01T06:26:46;20.52;;;9.60;;
77123;SDS011;66079;47.646;19.130;2023-03-01T06:29:49;18.35;;;9.32;;
77123;SDS011;66079;47.646;19.130;2023-03-01T06:32:52;17.95;;;9.25;;
77123;SDS011;66079;47.646;19.130;2023-03-01T06:36:03;20.17;;;9.37;;
77123;SDS011;66079;47.646;19.130;2023-03-01T06:39:06;17.07;;;9.67;;
77123;SDS011;66079;47.646;19.130;2023-03-01T06:42:09;24.90;;;10.35;;
77123;SDS011;66079;47.646;19.130;2023-03-01T06:45:14;20.33;;;9.93;;
77123;SDS011;66079;47.646;19.130;2023-03-01T06:48:17;19.10;;;10.73;;
77123;SDS011;66079;47.646;19.130;2023-03-01T06:51:19;20.67;;;11.07;;
77123;SDS011;66079;47.646;19.130;2023-03-01T06:54:22;23.13;;;11.00;;
77123;SDS011;66079;47.646;19.130;2023-03-01T06:57:25;22.25;;;10.90;;
77123;SDS011;66079;47.646;19.130;2023-03-01T07:00:31;20.27;;;10.40;;
77123;SDS011;66079;47.646;19.130;2023-03-01T07:03:33;20.90;;;10.43;;
77123;SDS011;66079;47.646;19.130;2023-03-01T07:06:36;17.43;;;10.13;;
77123;SDS011;66079;47.646;19.130;2023-03-01T07:09:39;16.63;;;9.73;;
77123;SDS011;66079;47.646;19.130;2023-03-01T07:12:41;19.80;;;10.35;;
77123;SDS011;66079;47.646;19.130;2023-03-01T07:15:44;22.23;;;10.93;;
77123;SDS011;66079;47.646;19.130;2023-03-01T07:18:46;19.55;;;10.25;;
77123;SDS011;66079;47.646;19.130;2023-03-01T07:21:49;18.47;;;9.77;;
77123;SDS011;66079;47.646;19.130;2023-03-01T07:24:51;20.17;;;9.63;;
77123;SDS011;66079;47.646;19.130;2023-03-01T07:27:54;16.67;;;9.55;;
77123;SDS011;66079;47.646;19.130;2023-03-01T07:31:01;20.70;;;10.32;;
77123;SDS011;66079;47.646;19.130;2023-03-01T07:34:04;19.15;;;9.02;;
77123;SDS011;66079;47.646;19.130;2023-03-01T07:37:07;22.13;;;10.60;;
77123;SDS011;66079;47.646;19.130;2023-03-01T07:40:10;14.20;;;8.43;;
77123;SDS011;66079;47.646;19.130;2023-03-01T07:43:14;17.17;;;8.50;;
77123;SDS011;66079;47.646;19.130;2023-03-01T07:46:16;16.40;;;8.50;;
77123;SDS011;66079;47.646;19.130;2023-03-01T07:49:21;19.50;;;9.27;;
77123;SDS011;66079;47.646;19.130;2023-03-01T07:52:24;18.00;;;9.47;;
77123;SDS011;66079;47.646;19.130;2023-03-01T07:55:26;16.27;;;8.40;;
77123;SDS011;66079;47.646;19.130;2023-03-01T07:58:29;15.95;;;8.70;;
77123;SDS011;66079;47.646;19.130;2023-03-01T08:01:32;16.42;;;8.07;;
77123;SDS011;66079;47.646;19.130;2023-03-01T08:04:34;16.27;;;8.55;;
77123;SDS011;66079;47.646;19.130;2023-03-01T08:07:37;14.83;;;8.40;;
77123;SDS011;66079;47.646;19.130;2023-03-01T08:10:42;13.47;;;7.90;;
77123;SDS011;66079;47.646;19.130;2023-03-01T08:13:46;13.93;;;8.23;;
77123;SDS011;66079;47.646;19.130;2023-03-01T08:16:52;12.73;;;8.05;;
77123;SDS011;66079;47.646;19.130;2023-03-01T08:19:55;12.45;;;7.65;;
77123;SDS011;66079;47.646;19.130;2023-03-01T08:22:58;15.40;;;7.87;;
77123;SDS011;66079;47.646;19.130;2023-03-01T08:26:07;12.30;;;7.90;;
77123;SDS011;66079;47.646;19.130;2023-03-01T08:29:12;13.50;;;7.97;;
77123;SDS011;66079;47.646;19.130;2023-03-01T08:32:15;12.82;;;7.38;;
77123;SDS011;66079;47.646;19.130;2023-03-01T08:35:21;13.55;;;8.00;;
77123;SDS011;66079;47.646;19.130;2023-03-01T08:38:24;14.20;;;8.07;;
77123;SDS011;66079;47.646;19.130;2023-03-01T08:41:27;14.20;;;7.80;;
77123;SDS011;66079;47.646;19.130;2023-03-01T08:44:29;13.35;;;6.75;;
77123;SDS011;66079;47.646;19.130;2023-03-01T08:47:32;14.23;;;7.95;;
77123;SDS011;66079;47.646;19.130;2023-03-01T08:50:38;17.25;;;7.75;;
77123;SDS011;66079;47.646;19.130;2023-03-01T08:53:44;14.87;;;7.83;;
77123;SDS011;66079;47.646;19.130;2023-03-01T08:56:47;15.33;;;7.93;;
77123;SDS011;66079;47.646;19.130;2023-03-01T08:59:50;13.15;;;7.47;;
77123;SDS011;66079;47.646;19.130;2023-03-01T09:02:52;14.77;;;8.30;;
77123;SDS011;66079;47.646;19.130;2023-03-01T09:05:59;12.07;;;7.43;;
77123;SDS011;66079;47.646;19.130;2023-03-01T09:09:04;16.10;;;7.83;;
77123;SDS011;66079;47.646;19.130;2023-03-01T09:12:07;15.63;;;7.97;;
77123;SDS011;66079;47.646;19.130;2023-03-01T09:15:10;14.18;;;8.05;;
77123;SDS011;66079;47.646;19.130;2023-03-01T09:18:12;15.15;;;7.95;;
77123;SDS011;66079;47.646;19.130;2023-03-01T09:21:15;13.57;;;7.95;;
77123;SDS011;66079;47.646;19.130;2023-03-01T09:24:32;14.80;;;8.33;;
77123;SDS011;66079;47.646;19.130;2023-03-01T09:27:34;13.70;;;7.50;;
77123;SDS011;66079;47.646;19.130;2023-03-01T09:30:39;11.93;;;7.75;;
77123;SDS011;66079;47.646;19.130;2023-03-01T09:33:42;13.82;;;7.97;;
77123;SDS011;66079;47.646;19.130;2023-03-01T09:36:44;15.02;;;7.97;;
77123;SDS011;66079;47.646;19.130;2023-03-01T09:39:47;14.23;;;8.20;;
77123;SDS011;66079;47.646;19.130;2023-03-01T09:43:01;17.37;;;9.60;;
77123;SDS011;66079;47.646;19.130;2023-03-01T09:46:11;14.43;;;7.85;;
77123;SDS011;66079;47.646;19.130;2023-03-01T09:49:19;12.68;;;7.75;;
77123;SDS011;66079;47.646;19.130;2023-03-01T10:05:58;12.75;;;8.02;;
77123;SDS011;66079;47.646;19.130;2023-03-01T10:09:33;12.77;;;8.15;;
77123;SDS011;66079;47.646;19.130;2023-03-01T10:12:39;13.40;;;7.97;;
77123;SDS011;66079;47.646;19.130;2023-03-01T10:15:47;12.77;;;8.00;;
77123;SDS011;66079;47.646;19.130;2023-03-01T10:19:14;13.38;;;8.10;;
77123;SDS011;66079;47.646;19.130;2023-03-01T10:22:29;12.40;;;8.07;;
77123;SDS011;66079;47.646;19.130;2023-03-01T10:32:05;11.90;;;7.40;;
77123;SDS011;66079;47.646;19.130;2023-03-01T10:35:16;11.73;;;7.22;;
77123;SDS011;66079;47.646;19.130;2023-03-01T10:38:48;15.20;;;7.40;;
77123;SDS011;66079;47.646;19.130;2023-03-01T10:42:03;13.13;;;7.72;;
77123;SDS011;66079;47.646;19.130;2023-03-01T10:48:31;10.50;;;7.33;;
77123;SDS011;66079;47.646;19.130;2023-03-01T10:51:34;9.50;;;7.63;;
77123;SDS011;66079;47.646;19.130;2023-03-01T10:54:36;11.88;;;7.00;;
77123;SDS011;66079;47.646;19.130;2023-03-01T10:57:39;11.55;;;8.10;;
77123;SDS011;66079;47.646;19.130;2023-03-01T11:00:49;10.00;;;7.50;;
77123;SDS011;66079;47.646;19.130;2023-03-01T11:04:15;9.93;;;7.70;;
77123;SDS011;66079;47.646;19.130;2023-03-01T11:07:19;11.20;;;7.57;;
77123;SDS011;66079;47.646;19.130;2023-03-01T11:10:31;12.23;;;7.90;;
77123;SDS011;66079;47.646;19.130;2023-03-01T11:13:36;10.25;;;7.78;;
77123;SDS011;66079;47.646;19.130;2023-03-01T11:17:28;11.17;;;8.10;;
77123;SDS011;66079;47.646;19.130;2023-03-01T11:20:41;8.07;;;5.47;;
77123;SDS011;66079;47.646;19.130;2023-03-01T11:23:45;6.43;;;5.40;;
77123;SDS011;66079;47.646;19.130;2023-03-01T11:26:53;8.70;;;5.28;;
77123;SDS011;66079;47.646;19.130;2023-03-01T11:33:20;5.27;;;4.63;;
77123;SDS011;66079;47.646;19.130;2023-03-01T11:36:43;6.40;;;5.00;;
77123;SDS011;66079;47.646;19.130;2023-03-01T11:39:59;6.35;;;4.43;;
77123;SDS011;66079;47.646;19.130;2023-03-01T11:43:26;7.35;;;4.20;;
77123;SDS011;66079;47.646;19.130;2023-03-01T11:47:03;5.75;;;4.70;;
77123;SDS011;66079;47.646;19.130;2023-03-01T11:57:23;5.60;;;4.00;;
77123;SDS011;66079;47.646;19.130;2023-03-01T12:07:32;6.93;;;3.63;;
77123;SDS011;66079;47.646;19.130;2023-03-01T12:21:06;5.32;;;4.25;;
77123;SDS011;66079;47.646;19.130;2023-03-01T12:24:33;6.33;;;3.53;;
77123;SDS011;66079;47.646;19.130;2023-03-01T12:31:16;4.80;;;3.75;;
77123;SDS011;66079;47.646;19.130;2023-03-01T12:37:54;4.57;;;3.38;;
77123;SDS011;66079;47.646;19.130;2023-03-01T12:51:26;5.15;;;3.63;;
77123;SDS011;66079;47.646;19.130;2023-03-01T12:54:33;8.02;;;3.85;;
77123;SDS011;66079;47.646;19.130;2023-03-01T12:57:40;8.13;;;3.97;;
77123;SDS011;66079;47.646;19.130;2023-03-01T13:11:17;5.30;;;3.50;;
77123;SDS011;66079;47.646;19.130;2023-03-01T13:17:29;5.77;;;4.10;;
77123;SDS011;66079;47.646;19.130;2023-03-01T13:20:45;8.35;;;3.92;;
77123;SDS011;66079;47.646;19.130;2023-03-01T13:23:49;7.07;;;3.88;;
77123;SDS011;66079;47.646;19.130;2023-03-01T13:33:39;6.70;;;4.03;;
77123;SDS011;66079;47.646;19.130;2023-03-01T13:36:49;7.60;;;3.92;;
77123;SDS011;66079;47.646;19.130;2023-03-01T13:39:52;7.60;;;3.60;;
77123;SDS011;66079;47.646;19.130;2023-03-01T13:42:55;5.18;;;3.75;;
77123;SDS011;66079;47.646;19.130;2023-03-01T13:46:23;6.20;;;3.63;;
77123;SDS011;66079;47.646;19.130;2023-03-01T13:49:27;7.20;;;4.30;;
77123;SDS011;66079;47.646;19.130;2023-03-01T13:52:50;6.28;;;4.25;;
77123;SDS011;66079;47.646;19.130;2023-03-01T13:59:18;6.05;;;3.90;;
77123;SDS011;66079;47.646;19.130;2023-03-01T14:02:22;4.37;;;3.60;;
77123;SDS011;66079;47.646;19.130;2023-03-01T14:05:25;5.07;;;3.83;;
77123;SDS011;66079;47.646;19.130;2023-03-01T14:08:28;5.30;;;3.70;;
77123;SDS011;66079;47.646;19.130;2023-03-01T14:14:43;6.50;;;3.72;;
77123;SDS011;66079;47.646;19.130;2023-03-01T14:21:37;6.07;;;3.70;;
77123;SDS011;66079;47.646;19.130;2023-03-01T14:24:41;6.47;;;3.60;;
77123;SDS011;66079;47.646;19.130;2023-03-01T14:27:56;5.15;;;3.75;;
77123;SDS011;66079;47.646;19.130;2023-03-01T14:31:01;7.22;;;4.25;;
77123;SDS011;66079;47.646;19.130;2023-03-01T14:34:04;6.30;;;3.60;;
77123;SDS011;66079;47.646;19.130;2023-03-01T14:43:30;5.43;;;3.80;;
77123;SDS011;66079;47.646;19.130;2023-03-01T14:46:35;5.38;;;4.20;;
77123;SDS011;66079;47.646;19.130;2023-03-01T14:49:40;8.70;;;3.90;;
77123;SDS011;66079;47.646;19.130;2023-03-01T14:52:45;5.10;;;3.50;;
77123;SDS011;66079;47.646;19.130;2023-03-01T14:55:53;7.78;;;3.72;;
77123;SDS011;66079;47.646;19.130;2023-03-01T14:58:58;8.60;;;3.80;;
77123;SDS011;66079;47.646;19.130;2023-03-01T15:02:01;8.30;;;3.60;;
77123;SDS011;66079;47.646;19.130;2023-03-01T15:05:05;5.97;;;3.77;;
77123;SDS011;66079;47.646;19.130;2023-03-01T15:08:17;7.10;;;3.63;;
77123;SDS011;66079;47.646;19.130;2023-03-01T15:11:24;6.75;;;3.78;;
77123;SDS011;66079;47.646;19.130;2023-03-01T15:14:41;7.30;;;3.83;;
77123;SDS011;66079;47.646;19.130;2023-03-01T15:18:00;10.23;;;3.40;;
77123;SDS011;66079;47.646;19.130;2023-03-01T15:21:06;6.63;;;3.40;;
77123;SDS011;66079;47.646;19.130;2023-03-01T15:27:22;5.20;;;3.70;;
77123;SDS011;66079;47.646;19.130;2023-03-01T15:30:27;5.25;;;3.22;;
77123;SDS011;66079;47.646;19.130;2023-03-01T15:33:37;5.88;;;3.20;;
77123;SDS011;66079;47.646;19.130;2023-03-01T15:36:42;5.77;;;3.70;;
77123;SDS011;66079;47.646;19.130;2023-03-01T15:39:52;6.80;;;2.93;;
77123;SDS011;66079;47.646;19.130;2023-03-01T15:43:00;8.32;;;3.72;;
77123;SDS011;66079;47.646;19.130;2023-03-01T15:46:04;7.93;;;3.50;;
77123;SDS011;66079;47.646;19.130;2023-03-01T15:52:28;9.30;;;3.73;;
77123;SDS011;66079;47.646;19.130;2023-03-01T15:55:37;6.93;;;3.80;;
77123;SDS011;66079;47.646;19.130;2023-03-01T15:58:39;5.85;;;4.18;;
77123;SDS011;66079;47.646;19.130;2023-03-01T16:01:43;7.70;;;3.83;;
77123;SDS011;66079;47.646;19.130;2023-03-01T16:04:47;6.05;;;3.55;;
77123;SDS011;66079;47.646;19.130;2023-03-01T16:07:51;9.30;;;3.33;;
77123;SDS011;66079;47.646;19.130;2023-03-01T16:10:56;5.63;;;3.40;;
77123;SDS011;66079;47.646;19.130;2023-03-01T16:13:58;8.20;;;3.80;;
77123;SDS011;66079;47.646;19.130;2023-03-01T16:17:01;8.13;;;3.88;;
77123;SDS011;66079;47.646;19.130;2023-03-01T16:20:04;6.97;;;3.13;;
77123;SDS011;66079;47.646;19.130;2023-03-01T16:23:16;6.60;;;3.60;;
77123;SDS011;66079;47.646;19.130;2023-03-01T16:26:18;5.27;;;3.77;;
77123;SDS011;66079;47.646;19.130;2023-03-01T16:29:22;6.88;;;3.63;;
77123;SDS011;66079;47.646;19.130;2023-03-01T16:32:25;8.80;;;3.95;;
77123;SDS011;66079;47.646;19.130;2023-03-01T16:35:28;11.57;;;4.10;;
77123;SDS011;66079;47.646;19.130;2023-03-01T16:38:31;10.20;;;4.30;;
77123;SDS011;66079;47.646;19.130;2023-03-01T16:41:34;11.77;;;5.17;;
77123;SDS011;66079;47.646;19.130;2023-03-01T16:44:38;13.52;;;6.03;;
77123;SDS011;66079;47.646;19.130;2023-03-01T16:47:40;10.32;;;5.72;;
77123;SDS011;66079;47.646;19.130;2023-03-01T16:50:44;14.35;;;6.85;;
77123;SDS011;66079;47.646;19.130;2023-03-01T16:53:47;14.20;;;7.47;;
77123;SDS011;66079;47.646;19.130;2023-03-01T16:56:50;15.23;;;7.20;;
77123;SDS011;66079;47.646;19.130;2023-03-01T16:59:53;15.10;;;6.60;;
77123;SDS011;66079;47.646;19.130;2023-03-01T17:02:56;13.00;;;6.50;;
77123;SDS011;66079;47.646;19.130;2023-03-01T17:06:03;15.38;;;6.78;;
77123;SDS011;66079;47.646;19.130;2023-03-01T17:09:07;18.63;;;6.67;;
77123;SDS011;66079;47.646;19.130;2023-03-01T17:12:13;22.80;;;7.43;;
77123;SDS011;66079;47.646;19.130;2023-03-01T17:15:17;14.23;;;6.47;;
77123;SDS011;66079;47.646;19.130;2023-03-01T17:18:20;22.35;;;7.38;;
77123;SDS011;66079;47.646;19.130;2023-03-01T17:21:22;26.17;;;8.73;;
77123;SDS011;66079;47.646;19.130;2023-03-01T17:24:25;22.80;;;11.67;;
77123;SDS011;66079;47.646;19.130;2023-03-01T17:27:27;24.33;;;12.10;;
77123;SDS011;66079;47.646;19.130;2023-03-01T17:30:30;46.92;;;19.77;;
77123;SDS011;66079;47.646;19.130;2023-03-01T17:33:34;42.47;;;17.52;;
77123;SDS011;66079;47.646;19.130;2023-03-01T17:36:37;39.80;;;17.02;;
77123;SDS011;66079;47.646;19.130;2023-03-01T17:39:45;36.30;;;15.13;;
77123;SDS011;66079;47.646;19.130;2023-03-01T17:42:48;35.07;;;15.93;;
77123;SDS011;66079;47.646;19.130;2023-03-01T17:45:51;34.78;;;15.43;;
77123;SDS011;66079;47.646;19.130;2023-03-01T17:48:54;34.40;;;15.70;;
77123;SDS011;66079;47.646;19.130;2023-03-01T17:51:56;44.40;;;16.92;;
77123;SDS011;66079;47.646;19.130;2023-03-01T17:54:59;37.07;;;16.93;;
77123;SDS011;66079;47.646;19.130;2023-03-01T17:58:02;34.67;;;16.60;;
77123;SDS011;66079;47.646;19.130;2023-03-01T18:01:11;37.55;;;15.82;;
77123;SDS011;66079;47.646;19.130;2023-03-01T18:04:19;38.78;;;14.82;;
77123;SDS011;66079;47.646;19.130;2023-03-01T18:07:22;39.70;;;16.98;;
77123;SDS011;66079;47.646;19.130;2023-03-01T18:10:26;47.13;;;18.60;;
77123;SDS011;66079;47.646;19.130;2023-03-01T18:13:28;36.57;;;17.63;;
77123;SDS011;66079;47.646;19.130;2023-03-01T18:16:31;39.05;;;17.45;;
77123;SDS011;66079;47.646;19.130;2023-03-01T18:19:39;41.88;;;17.77;;
77123;SDS011;66079;47.646;19.130;2023-03-01T18:22:42;39.45;;;16.85;;
77123;SDS011;66079;47.646;19.130;2023-03-01T18:25:45;42.53;;;16.83;;
77123;SDS011;66079;47.646;19.130;2023-03-01T18:28:49;39.23;;;18.17;;
77123;SDS011;66079;47.646;19.130;2023-03-01T18:31:53;41.55;;;18.85;;
77123;SDS011;66079;47.646;19.130;2023-03-01T18:34:55;39.30;;;17.33;;
77123;SDS011;66079;47.646;19.130;2023-03-01T18:37:58;34.28;;;16.73;;
77123;SDS011;66079;47.646;19.130;2023-03-01T18:41:01;39.63;;;17.60;;
77123;SDS011;66079;47.646;19.130;2023-03-01T18:44:03;32.70;;;15.43;;
77123;SDS011;66079;47.646;19.130;2023-03-01T18:47:07;42.03;;;18.30;;
77123;SDS011;66079;47.646;19.130;2023-03-01T18:50:10;45.58;;;19.10;;
77123;SDS011;66079;47.646;19.130;2023-03-01T18:53:13;45.05;;;20.33;;
77123;SDS011;66079;47.646;19.130;2023-03-01T18:56:16;49.37;;;21.97;;
77123;SDS011;66079;47.646;19.130;2023-03-01T18:59:19;42.30;;;20.03;;
77123;SDS011;66079;47.646;19.130;2023-03-01T19:02:22;47.67;;;22.35;;
77123;SDS011;66079;47.646;19.130;2023-03-01T19:05:26;50.85;;;22.67;;
77123;SDS011;66079;47.646;19.130;2023-03-01T19:08:30;46.90;;;20.90;;
77123;SDS011;66079;47.646;19.130;2023-03-01T19:11:34;46.10;;;19.90;;
77123;SDS011;66079;47.646;19.130;2023-03-01T19:14:37;55.40;;;26.67;;
77123;SDS011;66079;47.646;19.130;2023-03-01T19:17:39;52.15;;;22.88;;
77123;SDS011;66079;47.646;19.130;2023-03-01T19:20:42;39.40;;;19.17;;
77123;SDS011;66079;47.646;19.130;2023-03-01T19:23:48;32.05;;;15.02;;
77123;SDS011;66079;47.646;19.130;2023-03-01T19:26:52;33.47;;;15.30;;
77123;SDS011;66079;47.646;19.130;2023-03-01T19:29:57;33.80;;;15.73;;
77123;SDS011;66079;47.646;19.130;2023-03-01T19:33:00;27.05;;;15.90;;
77123;SDS011;66079;47.646;19.130;2023-03-01T19:36:03;31.67;;;15.43;;
77123;SDS011;66079;47.646;19.130;2023-03-01T19:39:06;34.25;;;16.48;;
77123;SDS011;66079;47.646;19.130;2023-03-01T19:42:09;38.70;;;17.13;;
77123;SDS011;66079;47.646;19.130;2023-03-01T19:45:13;38.97;;;18.87;;
77123;SDS011;66079;47.646;19.130;2023-03-01T19:48:21;38.63;;;19.60;;
77123;SDS011;66079;47.646;19.130;2023-03-01T19:51:25;50.33;;;21.15;;
77123;SDS011;66079;47.646;19.130;2023-03-01T19:54:29;45.47;;;21.45;;
77123;SDS011;66079;47.646;19.130;2023-03-01T19:57:32;47.53;;;24.03;;
77123;SDS011;66079;47.646;19.130;2023-03-01T20:00:35;45.97;;;24.00;;
77123;SDS011;66079;47.646;19.130;2023-03-01T20:03:39;52.38;;;25.70;;
77123;SDS011;66079;47.646;19.130;2023-03-01T20:06:43;50.70;;;24.20;;
77123;SDS011;66079;47.646;19.130;2023-03-01T20:09:48;44.03;;;23.77;;
77123;SDS011;66079;47.646;19.130;2023-03-01T20:12:51;46.37;;;23.53;;